Time;durP1;ratioP1;P1;durP2;ratioP2;P2;SDS_P1;SDS_P2;PMS_P1;PMS_P2;Temp;Humidity;BMP_temperature;BMP_pressure;BME280_temperature;BME280_humidity;BME280_pressure;Samples;Min_cycle;Max_cycle;Signal;HPM_P1;HPM_P2
2023/04/19 00:01:01;;;;;;;15.38;11.48;;;8.40;99.90;;;;;;5071644;28;20032;-58
2023/04/19 00:03:29;;;;;;;13.70;10.68;;;8.50;99.90;;;;;;5072427;28;20031;-58
2023/04/19 00:05:57;;;;;;;18.60;11.05;;;8.50;99.90;;;;;;5073444;28;20012;-58
2023/04/19 00:08:24;;;;;;;13.52;11.10;;;8.40;99.90;;;;;;5072752;28;20432;-57
2023/04/19 00:10:50;;;;;;;15.38;11.50;;;8.40;99.90;;;;;;5072723;28;20060;-59
2023/04/19 00:13:16;;;;;;;16.23;12.77;;;8.30;99.90;;;;;;5072549;28;20036;-58
2023/04/19 00:15:41;;;;;;;14.57;12.30;;;8.30;99.90;;;;;;5072739;28;20025;-58
2023/04/19 00:18:07;;;;;;;14.00;11.18;;;8.40;99.90;;;;;;5073510;28;20094;-58
2023/04/19 00:20:33;;;;;;;15.05;11.88;;;8.30;99.90;;;;;;5073082;28;20047;-58
2023/04/19 00:22:58;;;;;;;14.43;12.00;;;8.40;99.90;;;;;;5073498;28;20138;-58
2023/04/19 00:25:24;;;;;;;13.35;10.93;;;8.30;99.90;;;;;;5073126;28;20029;-58
2023/04/19 00:27:50;;;;;;;13.68;11.02;;;8.30;99.90;;;;;;5073246;28;20046;-58
2023/04/19 00:30:16;;;;;;;17.23;13.00;;;8.40;99.90;;;;;;5073185;28;20101;-55
2023/04/19 00:32:41;;;;;;;22.83;12.40;;;8.30;99.90;;;;;;5073176;28;20028;-58
2023/04/19 00:35:07;;;;;;;14.07;11.65;;;8.30;99.90;;;;;;5072966;28;20480;-58
2023/04/19 00:37:33;;;;;;;14.20;11.25;;;8.40;99.90;;;;;;5073043;28;20036;-58
2023/04/19 00:39:58;;;;;;;13.80;11.10;;;8.40;99.90;;;;;;5073126;28;20024;-56
2023/04/19 00:42:24;;;;;;;16.08;12.77;;;8.50;99.90;;;;;;5072842;28;20527;-58
2023/04/19 00:44:50;;;;;;;13.77;11.93;;;8.40;99.90;;;;;;5072911;28;20017;-58
2023/04/19 00:47:16;;;;;;;14.40;11.48;;;8.40;99.90;;;;;;5072852;28;20023;-58
2023/04/19 00:49:42;;;;;;;15.18;12.65;;;8.40;99.90;;;;;;5072842;28;20024;-58
2023/04/19 00:52:07;;;;;;;14.48;12.20;;;8.30;99.90;;;;;;5072635;28;20078;-58
2023/04/19 00:54:34;;;;;;;16.58;14.02;;;8.40;99.90;;;;;;5072757;28;20052;-58
2023/04/19 00:57:00;;;;;;;16.48;13.23;;;8.40;99.90;;;;;;5072870;28;20041;-58
2023/04/19 00:59:26;;;;;;;16.45;13.15;;;8.30;99.90;;;;;;5072267;28;20086;-58
2023/04/19 01:01:51;;;;;;;17.35;14.25;;;8.30;99.90;;;;;;5072734;28;20060;-58
2023/04/19 01:04:17;;;;;;;16.50;12.68;;;8.30;99.90;;;;;;5072722;28;20047;-58
2023/04/19 01:06:43;;;;;;;16.10;14.13;;;8.40;99.90;;;;;;5072577;28;20021;-57
2023/04/19 01:09:09;;;;;;;14.23;12.32;;;8.40;99.90;;;;;;5071065;28;20029;-58
2023/04/19 01:11:34;;;;;;;15.20;12.80;;;8.40;99.90;;;;;;5072457;28;20421;-58
2023/04/19 01:14:00;;;;;;;14.48;12.23;;;8.40;99.90;;;;;;5072515;28;20381;-59
2023/04/19 01:16:26;;;;;;;21.88;13.68;;;8.40;99.90;;;;;;5072092;28;20029;-58
2023/04/19 01:18:52;;;;;;;15.38;12.25;;;8.40;99.90;;;;;;5072279;28;20016;-58
2023/04/19 01:21:18;;;;;;;14.13;12.32;;;8.30;99.90;;;;;;5072024;28;20021;-57
2023/04/19 01:23:44;;;;;;;20.13;13.68;;;8.30;99.90;;;;;;5072614;28;20020;-58
2023/04/19 01:26:10;;;;;;;15.32;13.43;;;8.30;99.90;;;;;;5072017;28;20031;-58
2023/04/19 01:28:36;;;;;;;19.08;14.20;;;8.20;99.90;;;;;;5072044;28;20024;-57
2023/04/19 01:31:01;;;;;;;16.02;12.82;;;8.20;99.90;;;;;;5072186;28;20360;-58
2023/04/19 01:33:27;;;;;;;19.90;13.85;;;8.20;99.90;;;;;;5071768;28;20032;-58
2023/04/19 01:35:53;;;;;;;16.60;13.55;;;8.20;99.90;;;;;;5071962;28;20032;-59
2023/04/19 01:38:18;;;;;;;15.60;13.48;;;8.20;99.90;;;;;;5071880;28;20021;-58
2023/04/19 01:40:44;;;;;;;16.00;13.77;;;8.20;99.90;;;;;;5071791;28;20108;-58
2023/04/19 01:43:15;;;;;;;19.95;14.80;;;8.20;99.90;;;;;;5071870;28;20036;-57
2023/04/19 01:45:41;;;;;;;18.08;15.10;;;8.20;99.90;;;;;;5071855;28;20714;-58
2023/04/19 01:48:06;;;;;;;16.48;11.80;;;8.20;99.90;;;;;;5071802;28;20024;-58
2023/04/19 01:50:32;;;;;;;15.95;13.20;;;8.20;99.90;;;;;;5071756;28;20115;-57
2023/04/19 01:52:58;;;;;;;17.88;13.88;;;8.30;99.90;;;;;;5071879;28;20028;-59
2023/04/19 01:55:24;;;;;;;16.65;13.45;;;8.30;99.90;;;;;;5071647;28;20020;-58
2023/04/19 01:57:51;;;;;;;17.13;13.30;;;8.40;99.90;;;;;;5071690;28;20047;-58
2023/04/19 02:00:17;;;;;;;19.02;14.02;;;8.30;99.90;;;;;;5070093;28;20037;-59
2023/04/19 02:02:43;;;;;;;20.10;13.68;;;8.30;99.90;;;;;;5071444;28;20024;-57
2023/04/19 02:05:10;;;;;;;18.70;14.85;;;8.30;99.90;;;;;;5071781;28;20036;-55
2023/04/19 02:07:36;;;;;;;16.48;13.65;;;8.20;99.90;;;;;;5071097;28;20021;-58
2023/04/19 02:10:02;;;;;;;20.38;14.90;;;8.20;99.90;;;;;;5071776;28;20032;-58
2023/04/19 02:12:29;;;;;;;21.45;15.77;;;8.20;99.90;;;;;;5071399;28;20020;-58
2023/04/19 02:14:58;;;;;;;21.30;16.20;;;8.20;99.90;;;;;;5071526;28;20457;-58
2023/04/19 02:17:24;;;;;;;21.77;16.92;;;8.20;99.90;;;;;;5071795;28;20047;-58
2023/04/19 02:19:50;;;;;;;20.35;15.40;;;8.20;99.90;;;;;;5071261;28;20028;-56
2023/04/19 02:22:16;;;;;;;28.70;17.63;;;8.20;99.90;;;;;;5071530;28;20028;-58
2023/04/19 02:24:42;;;;;;;22.27;16.98;;;8.10;99.90;;;;;;5071521;28;20546;-58
2023/04/19 02:27:07;;;;;;;20.35;15.80;;;8.10;99.90;;;;;;5071284;28;20024;-58
2023/04/19 02:29:33;;;;;;;25.23;17.30;;;8.20;99.90;;;;;;5071457;28;20029;-57
2023/04/19 02:31:59;;;;;;;18.77;14.18;;;8.10;99.90;;;;;;5071187;28;20464;-58
2023/04/19 02:34:26;;;;;;;19.38;15.05;;;8.10;99.90;;;;;;5071331;28;20086;-58
2023/04/19 02:36:52;;;;;;;21.30;15.55;;;8.10;99.90;;;;;;5071220;28;20121;-58
2023/04/19 02:39:17;;;;;;;18.42;15.63;;;8.10;99.90;;;;;;5071336;28;20430;-57
2023/04/19 02:41:43;;;;;;;19.20;15.45;;;8.10;99.90;;;;;;5071231;28;20017;-58
2023/04/19 02:44:09;;;;;;;21.48;15.98;;;8.10;99.90;;;;;;5071036;28;20380;-58
2023/04/19 02:46:35;;;;;;;21.52;16.35;;;8.10;99.90;;;;;;5071253;28;20074;-56
2023/04/19 02:49:00;;;;;;;23.30;16.45;;;8.10;99.90;;;;;;5071147;28;20107;-56
2023/04/19 02:51:26;;;;;;;24.80;17.15;;;8.10;99.90;;;;;;5071795;28;20031;-57
2023/04/19 02:53:52;;;;;;;20.10;15.82;;;8.10;99.90;;;;;;5071080;28;20661;-59
2023/04/19 02:56:17;;;;;;;19.40;15.65;;;8.10;99.90;;;;;;5071207;28;20025;-58
2023/04/19 02:58:44;;;;;;;22.67;15.85;;;8.10;99.90;;;;;;5070844;28;20044;-58
2023/04/19 03:01:09;;;;;;;18.30;14.98;;;8.20;99.90;;;;;;5070764;28;20111;-59
2023/04/19 03:03:35;;;;;;;21.15;16.60;;;8.20;99.90;;;;;;5071054;28;20120;-58
2023/04/19 03:06:01;;;;;;;19.40;15.77;;;8.20;99.90;;;;;;5071104;28;20025;-59
2023/04/19 03:08:27;;;;;;;20.55;15.18;;;8.20;99.90;;;;;;5069597;28;20494;-59
2023/04/19 03:10:52;;;;;;;20.83;16.13;;;8.20;99.90;;;;;;5070899;28;20056;-58
2023/04/19 03:13:18;;;;;;;21.42;17.13;;;8.20;99.90;;;;;;5070856;28;20423;-59
2023/04/19 03:15:44;;;;;;;86.07;38.92;;;8.20;99.90;;;;;;5070802;28;20414;-58
2023/04/19 03:18:10;;;;;;;23.60;16.67;;;8.10;99.90;;;;;;5070838;28;20356;-59
2023/04/19 03:20:35;;;;;;;19.35;15.90;;;8.10;99.90;;;;;;5073221;28;20025;-58
2023/04/19 03:23:01;;;;;;;20.40;16.00;;;8.10;99.90;;;;;;5074427;28;20079;-58
2023/04/19 03:25:27;;;;;;;20.13;15.43;;;8.10;99.90;;;;;;5074433;28;20051;-58
2023/04/19 03:27:52;;;;;;;21.05;16.13;;;8.10;99.90;;;;;;5074400;28;20518;-59
2023/04/19 03:30:18;;;;;;;25.23;19.30;;;8.10;99.90;;;;;;5074089;28;20103;-59
2023/04/19 03:32:45;;;;;;;25.73;18.35;;;8.10;99.90;;;;;;5074346;28;20019;-57
2023/04/19 03:35:10;;;;;;;28.77;18.73;;;8.10;99.90;;;;;;5074116;28;20032;-59
2023/04/19 03:37:36;;;;;;;27.30;18.67;;;8.10;99.90;;;;;;5073870;28;20024;-59
2023/04/19 03:40:02;;;;;;;23.80;18.25;;;8.10;99.90;;;;;;5073446;28;20094;-59
2023/04/19 03:42:27;;;;;;;22.10;17.00;;;8.10;99.90;;;;;;5073947;28;20054;-56
2023/04/19 03:44:53;;;;;;;20.45;15.98;;;8.10;99.90;;;;;;5073942;28;20516;-59
2023/04/19 03:47:19;;;;;;;20.15;15.88;;;8.20;99.90;;;;;;5074021;28;20456;-59
2023/04/19 03:49:44;;;;;;;28.42;19.80;;;8.30;99.90;;;;;;5073679;28;20474;-57
2023/04/19 03:52:10;;;;;;;24.02;17.98;;;8.30;99.90;;;;;;5073518;28;20024;-56
2023/04/19 03:54:36;;;;;;;24.08;16.08;;;8.30;99.90;;;;;;5073574;28;20017;-58
2023/04/19 03:57:01;;;;;;;22.25;15.50;;;8.30;99.90;;;;;;5073518;28;20074;-58
2023/04/19 03:59:27;;;;;;;18.92;15.02;;;8.30;99.90;;;;;;5073178;28;20040;-59
2023/04/19 04:01:52;;;;;;;20.75;15.98;;;8.20;99.90;;;;;;5073523;28;20056;-58
2023/04/19 04:04:18;;;;;;;27.75;17.90;;;8.10;99.90;;;;;;5073280;28;20024;-58
2023/04/19 04:06:44;;;;;;;27.23;19.73;;;8.10;99.90;;;;;;5073056;28;20016;-58
2023/04/19 04:09:10;;;;;;;23.38;17.80;;;8.10;99.90;;;;;;5073254;28;20013;-59
2023/04/19 04:11:35;;;;;;;27.17;18.95;;;8.10;99.90;;;;;;5073346;28;20112;-59
2023/04/19 04:14:03;;;;;;;25.38;18.73;;;8.00;99.90;;;;;;5073452;28;20040;-56
2023/04/19 04:16:28;;;;;;;30.38;19.80;;;8.00;99.90;;;;;;5073054;28;20033;-59
2023/04/19 04:18:54;;;;;;;23.38;17.80;;;8.00;99.90;;;;;;5073547;28;20031;-58
2023/04/19 04:21:20;;;;;;;32.40;22.10;;;8.00;99.90;;;;;;5073180;28;20028;-59
2023/04/19 04:23:46;;;;;;;26.40;20.35;;;8.00;99.90;;;;;;5073269;28;20020;-58
2023/04/19 04:26:12;;;;;;;35.47;23.42;;;8.00;99.90;;;;;;5073146;28;20048;-59
2023/04/19 04:28:38;;;;;;;32.10;22.40;;;8.00;99.90;;;;;;5073041;28;20029;-58
2023/04/19 04:31:04;;;;;;;28.77;21.17;;;8.00;99.90;;;;;;5073028;28;20025;-57
2023/04/19 04:33:48;;;;;;;33.42;22.42;;;8.00;99.90;;;;;;5073020;28;20372;-58
2023/04/19 04:36:14;;;;;;;;;;;8.10;99.90;;;;;;5072119;28;20483;-58
2023/04/19 04:38:40;;;;;;;25.55;18.67;;;8.10;99.90;;;;;;5073015;28;19904;-58
2023/04/19 04:41:05;;;;;;;21.20;16.50;;;8.10;99.90;;;;;;5072761;28;20120;-59
2023/04/19 04:43:32;;;;;;;23.38;17.75;;;8.10;99.90;;;;;;5072704;28;20108;-59
2023/04/19 04:45:58;;;;;;;21.23;17.70;;;8.20;99.90;;;;;;5071705;28;20027;-58
2023/04/19 04:48:24;;;;;;;22.13;16.83;;;8.30;99.90;;;;;;5073120;28;20025;-59
2023/04/19 04:50:49;;;;;;;25.92;17.73;;;8.30;99.90;;;;;;5072869;28;20029;-59
2023/04/19 04:53:15;;;;;;;23.95;18.23;;;8.20;99.90;;;;;;5072571;28;20029;-59
2023/04/19 04:55:41;;;;;;;25.80;18.85;;;8.20;99.90;;;;;;5072627;28;20034;-59
2023/04/19 04:58:06;;;;;;;27.08;19.02;;;8.20;99.90;;;;;;5072339;28;20099;-57
2023/04/19 05:00:32;;;;;;;34.25;24.60;;;8.20;99.90;;;;;;5069995;28;20049;-57
2023/04/19 05:02:58;;;;;;;33.00;19.98;;;8.20;99.90;;;;;;5071777;28;20052;-60
2023/04/19 05:05:25;;;;;;;27.23;19.52;;;8.20;99.90;;;;;;5070690;28;20024;-59
2023/04/19 05:07:50;;;;;;;27.08;19.67;;;8.30;99.90;;;;;;5070922;28;20892;-59
2023/04/19 05:10:16;;;;;;;23.92;17.58;;;8.30;99.90;;;;;;5071514;28;20063;-59
2023/04/19 05:12:42;;;;;;;24.73;18.40;;;8.30;99.90;;;;;;5089031;28;20031;-59
2023/04/19 05:15:07;;;;;;;26.38;17.52;;;8.30;99.90;;;;;;5092158;28;20543;-60
2023/04/19 05:17:33;;;;;;;61.97;47.50;;;8.30;99.90;;;;;;5085074;28;20025;-59
2023/04/19 05:19:59;;;;;;;30.17;20.27;;;8.30;99.90;;;;;;5071440;28;20025;-59
2023/04/19 05:22:26;;;;;;;26.23;18.08;;;8.30;99.90;;;;;;5072010;28;20024;-57
2023/04/19 05:24:51;;;;;;;26.10;19.92;;;8.40;99.90;;;;;;5071783;28;20056;-58
2023/04/19 05:27:36;;;;;;;31.20;20.08;;;8.50;99.90;;;;;;5071550;28;20067;-60
2023/04/19 05:30:03;;;;;;;30.55;21.63;;;8.60;99.90;;;;;;5071695;28;20074;-59
2023/04/19 05:32:29;;;;;;;27.77;18.77;;;8.60;99.90;;;;;;5071535;28;20016;-59
2023/04/19 05:34:55;;;;;;;26.15;19.63;;;8.80;99.90;;;;;;5071215;28;20020;-59
2023/04/19 05:37:22;;;;;;;25.38;17.65;;;8.80;99.90;;;;;;5071408;28;20021;-59
2023/04/19 05:39:49;;;;;;;25.08;18.25;;;9.00;99.90;;;;;;5071540;28;20127;-57
2023/04/19 05:42:14;;;;;;;23.92;17.75;;;9.00;98.60;;;;;;5070849;28;20407;-59
2023/04/19 05:44:40;;;;;;;24.75;18.15;;;9.00;99.10;;;;;;5070164;28;20025;-59
2023/04/19 05:47:05;;;;;;;21.60;16.98;;;9.00;99.00;;;;;;5071525;28;20021;-59
2023/04/19 05:49:31;;;;;;;22.55;17.60;;;9.10;98.00;;;;;;5088259;28;20031;-59
2023/04/19 05:51:57;;;;;;;28.48;19.65;;;9.10;97.80;;;;;;5081796;28;20111;-57
2023/04/19 05:54:22;;;;;;;28.45;21.23;;;9.10;97.30;;;;;;5071338;28;20048;-59
2023/04/19 05:56:48;;;;;;;35.20;21.52;;;9.20;98.20;;;;;;5071594;28;20020;-59
2023/04/19 05:59:14;;;;;;;29.00;19.15;;;9.20;96.40;;;;;;5071339;28;20066;-59
2023/04/19 06:01:41;;;;;;;27.00;19.02;;;9.30;95.80;;;;;;5070104;28;20048;-59
2023/04/19 06:04:06;;;;;;;29.92;19.88;;;9.40;94.90;;;;;;5071313;28;20024;-59
2023/04/19 06:06:32;;;;;;;25.10;18.90;;;9.40;94.60;;;;;;5071266;28;20048;-59
2023/04/19 06:08:57;;;;;;;22.52;16.88;;;9.30;94.10;;;;;;5071074;28;20538;-60
2023/04/19 06:11:23;;;;;;;24.83;17.73;;;9.40;95.10;;;;;;5071220;28;20024;-59
2023/04/19 06:13:50;;;;;;;28.08;19.83;;;9.40;94.80;;;;;;5071470;28;20456;-58
2023/04/19 06:16:15;;;;;;;28.30;20.02;;;9.50;95.80;;;;;;5071164;28;20021;-58
2023/04/19 06:18:42;;;;;;;27.98;19.85;;;9.60;95.50;;;;;;5071263;28;20522;-60
2023/04/19 06:21:07;;;;;;;27.33;20.25;;;9.60;94.20;;;;;;5071071;28;20037;-60
2023/04/19 06:23:33;;;;;;;28.75;20.45;;;9.50;92.60;;;;;;5071336;28;20023;-59
2023/04/19 06:25:59;;;;;;;27.63;19.85;;;9.60;94.60;;;;;;5071110;28;20534;-58
2023/04/19 06:28:25;;;;;;;29.50;21.75;;;9.70;91.90;;;;;;5069801;28;20051;-59
2023/04/19 06:30:50;;;;;;;30.60;20.55;;;9.80;90.10;;;;;;5070418;28;20028;-57
2023/04/19 06:33:16;;;;;;;28.40;19.15;;;9.90;83.80;;;;;;5070979;28;20025;-57
2023/04/19 06:35:42;;;;;;;31.80;19.10;;;9.90;90.40;;;;;;5070914;28;20028;-59
2023/04/19 06:38:07;;;;;;;31.10;20.60;;;9.90;90.40;;;;;;5069497;28;20036;-57
2023/04/19 06:40:34;;;;;;;28.55;19.58;;;9.90;91.20;;;;;;5063346;28;20049;-57
2023/04/19 06:42:59;;;;;;;25.77;20.77;;;9.90;90.50;;;;;;5069682;28;20017;-58
2023/04/19 06:45:25;;;;;;;32.83;21.85;;;9.90;86.50;;;;;;5061300;28;20036;-57
2023/04/19 06:47:51;;;;;;;30.38;21.05;;;9.90;84.40;;;;;;5065484;28;20036;-58
2023/04/19 06:50:17;;;;;;;29.98;21.42;;;9.80;88.00;;;;;;5064650;28;20040;-59
2023/04/19 06:52:42;;;;;;;32.33;20.98;;;9.80;89.10;;;;;;5069299;28;20035;-57
2023/04/19 06:55:08;;;;;;;34.72;23.10;;;9.90;85.60;;;;;;5067695;28;20032;-57
2023/04/19 06:57:34;;;;;;;30.77;23.50;;;10.00;80.40;;;;;;5056846;28;20115;-57
2023/04/19 07:00:00;;;;;;;33.85;22.13;;;10.10;85.10;;;;;;5071055;28;20129;-59
2023/04/19 07:02:25;;;;;;;38.65;25.63;;;10.20;85.50;;;;;;5054685;28;21273;-58
2023/04/19 07:04:51;;;;;;;32.88;23.67;;;10.10;85.70;;;;;;5061371;28;20170;-58
2023/04/19 07:07:17;;;;;;;35.05;24.40;;;10.20;90.20;;;;;;5068795;28;20048;-59
2023/04/19 07:09:42;;;;;;;66.43;39.95;;;10.30;69.60;;;;;;5056092;28;20048;-59
2023/04/19 07:12:08;;;;;;;31.58;23.42;;;10.30;78.60;;;;;;5054324;28;20376;-58
2023/04/19 07:14:34;;;;;;;31.55;22.02;;;10.50;78.50;;;;;;5060071;28;20039;-59
2023/04/19 07:16:59;;;;;;;75.38;40.15;;;10.70;63.00;;;;;;5071280;28;20275;-58
2023/04/19 07:19:27;;;;;;;30.98;23.23;;;10.70;44.20;;;;;;5060283;28;20040;-59
2023/04/19 07:21:52;;;;;;;29.75;22.67;;;10.70;62.80;;;;;;5067931;28;20067;-58
2023/04/19 07:24:18;;;;;;;40.85;24.33;;;11.00;48.10;;;;;;5058726;28;20056;-59
2023/04/19 07:26:44;;;;;;;29.15;21.50;;;10.80;26.60;;;;;;5061039;28;20051;-58
2023/04/19 07:29:09;;;;;;;33.13;23.52;;;10.90;58.00;;;;;;5061629;28;20533;-58
2023/04/19 07:31:35;;;;;;;36.17;24.35;;;11.00;29.30;;;;;;5056343;28;20120;-59
2023/04/19 07:34:01;;;;;;;36.58;24.25;;;11.10;35.00;;;;;;5064856;28;20467;-59
2023/04/19 07:36:27;;;;;;;35.80;22.85;;;11.10;25.80;;;;;;5068005;28;20104;-59
2023/04/19 07:38:52;;;;;;;32.15;23.08;;;11.20;11.30;;;;;;5053901;28;20100;-58
2023/04/19 07:41:18;;;;;;;34.38;22.42;;;11.30;29.40;;;;;;5069007;28;20032;-58
2023/04/19 07:43:44;;;;;;;32.95;23.67;;;11.50;3.90;;;;;;5073651;28;20033;-59
2023/04/19 07:46:12;;;;;;;37.47;22.95;;;11.40;1.80;;;;;;5072413;28;20025;-57
2023/04/19 07:48:38;;;;;;;33.72;23.17;;;11.30;18.50;;;;;;5075168;28;20028;-58
2023/04/19 07:51:10;;;;;;;43.97;26.33;;;11.10;1.00;;;;;;5073746;28;20023;-58
2023/04/19 07:53:37;;;;;;;37.05;24.67;;;11.10;27.10;;;;;;5073210;28;20485;-58
2023/04/19 07:56:03;;;;;;;37.55;25.02;;;11.30;6.60;;;;;;5074144;28;20426;-60
2023/04/19 07:58:28;;;;;;;39.58;26.70;;;11.80;1.00;;;;;;5073889;28;20032;-57
2023/04/19 08:00:54;;;;;;;40.35;23.75;;;11.40;1.00;;;;;;5073722;28;20024;-58
2023/04/19 08:03:20;;;;;;;33.22;24.20;;;11.60;1.00;;;;;;5072264;28;20099;-58
2023/04/19 08:05:46;;;;;;;33.67;25.08;;;11.30;1.00;;;;;;5072479;28;20025;-59
2023/04/19 08:08:12;;;;;;;44.25;24.48;;;11.30;1.00;;;;;;5073222;28;20636;-59
2023/04/19 08:10:37;;;;;;;36.92;22.50;;;11.30;3.30;;;;;;5072111;28;20368;-59
2023/04/19 08:13:03;;;;;;;38.90;23.48;;;11.30;12.60;;;;;;5073435;28;20376;-59
2023/04/19 08:15:28;;;;;;;37.85;25.55;;;11.30;1.00;;;;;;5073296;28;20479;-58
2023/04/19 08:17:54;;;;;;;32.72;22.85;;;11.50;7.10;;;;;;5073246;28;20031;-59
2023/04/19 08:20:20;;;;;;;33.17;24.33;;;11.40;1.00;;;;;;5073023;28;20024;-58
2023/04/19 08:22:46;;;;;;;31.73;21.27;;;11.50;1.00;;;;;;5072304;28;20020;-58
2023/04/19 08:25:12;;;;;;;40.20;24.60;;;12.00;1.00;;;;;;5072862;28;20497;-58
2023/04/19 08:27:37;;;;;;;30.17;22.67;;;12.00;1.00;;;;;;5073230;28;20112;-58
2023/04/19 08:30:04;;;;;;;36.38;23.58;;;11.70;1.00;;;;;;5073024;28;20021;-59
2023/04/19 08:32:29;;;;;;;32.80;22.42;;;12.00;1.00;;;;;;5072901;28;20033;-59
2023/04/19 08:34:56;;;;;;;31.58;20.10;;;11.70;1.00;;;;;;5073046;28;20042;-57
2023/04/19 08:37:21;;;;;;;33.42;21.65;;;12.00;1.00;;;;;;5072858;28;20013;-59
2023/04/19 08:39:47;;;;;;;29.95;20.63;;;12.10;1.00;;;;;;5072974;28;20033;-58
2023/04/19 08:42:13;;;;;;;30.30;21.63;;;12.70;1.00;;;;;;5072320;28;20459;-57
2023/04/19 08:44:39;;;;;;;31.17;20.65;;;13.10;1.00;;;;;;5073061;28;20078;-57
2023/04/19 08:47:27;;;;;;;30.33;21.48;;;13.20;1.00;;;;;;5072947;28;20411;-59
2023/04/19 08:49:55;;;;;;;29.60;20.10;;;13.30;1.00;;;;;;5072675;28;20028;-58
2023/04/19 08:52:22;;;;;;;43.40;29.13;;;13.20;1.00;;;;;;5072679;28;20392;-58
2023/04/19 08:54:49;;;;;;;67.63;39.00;;;12.60;1.00;;;;;;5072759;28;20027;-57
2023/04/19 08:57:15;;;;;;;49.08;30.63;;;12.50;1.00;;;;;;5072094;28;20047;-59
2023/04/19 08:59:44;;;;;;;41.22;25.45;;;12.60;1.00;;;;;;5072260;28;20048;-56
2023/04/19 09:02:10;;;;;;;32.15;23.23;;;12.50;1.00;;;;;;5072175;28;20106;-57
2023/04/19 09:04:35;;;;;;;31.73;22.42;;;12.60;1.00;;;;;;5072459;28;20476;-58
2023/04/19 09:07:01;;;;;;;30.70;21.92;;;13.00;1.00;;;;;;5072380;28;20093;-59
2023/04/19 09:09:28;;;;;;;32.17;20.17;;;12.80;1.00;;;;;;5072134;28;20051;-58
2023/04/19 09:11:54;;;;;;;33.10;20.67;;;12.70;1.00;;;;;;5072247;28;20515;-58
2023/04/19 09:14:21;;;;;;;26.15;19.73;;;12.60;1.00;;;;;;5071707;28;20104;-56
2023/04/19 09:16:47;;;;;;;28.67;19.30;;;12.60;1.00;;;;;;5069601;28;20527;-59
2023/04/19 09:19:15;;;;;;;31.45;21.70;;;12.60;1.00;;;;;;5071658;28;20028;-59
2023/04/19 09:21:41;;;;;;;29.08;21.40;;;12.50;1.00;;;;;;5071884;28;20032;-59
2023/04/19 09:24:07;;;;;;;29.55;21.63;;;12.30;1.00;;;;;;5072137;28;20059;-59
2023/04/19 09:26:33;;;;;;;30.25;20.70;;;12.30;7.90;;;;;;5070726;28;20047;-56
2023/04/19 09:29:01;;;;;;;32.75;22.70;;;12.20;7.80;;;;;;5072185;28;20028;-58
2023/04/19 09:31:34;;;;;;;35.65;26.27;;;11.80;20.30;;;;;;5069988;28;20472;-59
2023/04/19 09:34:15;;;;;;;28.55;20.50;;;11.20;47.60;;;;;;5071549;28;20404;-58
2023/04/19 09:36:41;;;;;;;30.58;23.08;;;10.80;40.40;;;;;;5071637;28;20442;-56
2023/04/19 09:39:07;;;;;;;56.38;30.08;;;10.70;70.20;;;;;;5070187;28;20032;-59
2023/04/19 09:41:34;;;;;;;59.15;26.92;;;10.60;75.40;;;;;;5071502;28;20055;-58
2023/04/19 09:44:10;;;;;;;50.80;28.17;;;10.60;79.90;;;;;;5070745;28;20430;-59
2023/04/19 09:46:36;;;;;;;32.08;24.95;;;10.50;81.60;;;;;;5071461;28;20020;-59
2023/04/19 09:49:15;;;;;;;39.88;26.58;;;10.50;74.00;;;;;;5070940;28;20609;-58
2023/04/19 09:51:42;;;;;;;37.47;25.58;;;10.50;83.00;;;;;;5070951;28;20074;-57
2023/04/19 09:54:10;;;;;;;35.00;24.05;;;10.40;60.70;;;;;;5089639;28;20438;-58
2023/04/19 09:56:36;;;;;;;37.50;24.55;;;10.40;68.70;;;;;;5091328;28;20028;-59
2023/04/19 09:59:03;;;;;;;35.53;21.92;;;10.50;76.60;;;;;;5090972;28;20040;-58
2023/04/19 10:01:39;;;;;;;31.13;22.88;;;10.60;62.50;;;;;;5091075;28;20386;-58
2023/04/19 10:04:06;;;;;;;32.25;23.05;;;10.90;59.50;;;;;;5091041;28;20099;-60
2023/04/19 10:06:33;;;;;;;37.05;24.65;;;10.80;51.30;;;;;;5079924;28;20017;-60
2023/04/19 10:09:03;;;;;;;31.48;22.65;;;10.90;53.60;;;;;;5088043;28;20356;-60
2023/04/19 10:11:37;;;;;;;47.72;30.50;;;11.00;36.80;;;;;;5091414;28;20471;-59
2023/04/19 10:14:05;;;;;;;35.85;24.23;;;11.10;39.70;;;;;;5091633;28;20103;-59
2023/04/19 10:16:31;;;;;;;34.38;24.40;;;11.40;54.70;;;;;;5091659;28;20343;-57
2023/04/19 10:18:58;;;;;;;29.30;20.48;;;11.50;16.10;;;;;;5091540;28;20023;-58
2023/04/19 10:21:26;;;;;;;31.83;20.92;;;11.10;24.10;;;;;;5091227;28;20412;-59
2023/04/19 10:23:53;;;;;;;34.08;24.85;;;11.10;49.00;;;;;;5078053;28;20021;-59
2023/04/19 10:26:19;;;;;;;29.35;22.42;;;11.10;51.60;;;;;;5071198;28;20013;-59
2023/04/19 10:28:46;;;;;;;32.42;27.05;;;11.20;23.30;;;;;;5071340;28;20035;-57
2023/04/19 10:31:13;;;;;;;29.33;22.75;;;11.10;27.00;;;;;;5075061;28;20384;-59
2023/04/19 10:33:39;;;;;;;28.90;23.00;;;11.20;45.60;;;;;;5075353;28;20043;-60
2023/04/19 10:36:09;;;;;;;27.30;20.35;;;11.10;39.20;;;;;;5075445;28;20016;-58
2023/04/19 10:38:51;;;;;;;27.75;20.02;;;11.00;33.10;;;;;;5075335;28;20047;-58
2023/04/19 10:41:18;;;;;;;30.10;21.10;;;11.00;29.90;;;;;;5074771;28;20024;-59
2023/04/19 10:43:45;;;;;;;32.25;21.00;;;10.90;61.50;;;;;;5075055;28;20017;-59
2023/04/19 10:46:20;;;;;;;31.10;21.20;;;10.80;51.30;;;;;;5074858;28;20018;-58
2023/04/19 10:48:54;;;;;;;31.45;20.17;;;10.90;53.70;;;;;;5075229;28;20154;-59
2023/04/19 10:51:43;;;;;;;24.55;18.98;;;11.10;58.00;;;;;;5091624;28;20032;-58
2023/04/19 10:54:27;;;;;;;27.35;21.52;;;11.20;47.90;;;;;;5094998;28;20024;-59
2023/04/19 10:57:07;;;;;;;26.23;19.48;;;11.20;34.50;;;;;;5091061;28;20045;-58
2023/04/19 10:59:34;;;;;;;22.00;17.30;;;11.10;24.20;;;;;;5074555;28;20051;-59
2023/04/19 11:02:02;;;;;;;15.80;12.40;;;11.00;17.60;;;;;;5074549;28;20035;-58
2023/04/19 11:04:30;;;;;;;11.52;10.32;;;10.70;10.70;;;;;;5074391;28;20028;-58
2023/04/19 11:07:00;;;;;;;13.15;8.77;;;10.60;12.20;;;;;;5074519;28;20016;-59
2023/04/19 11:09:26;;;;;;;15.85;10.52;;;10.40;19.90;;;;;;5074424;28;20411;-58
2023/04/19 11:11:53;;;;;;;15.82;10.93;;;10.40;29.20;;;;;;5074453;28;20016;-58
2023/04/19 11:14:23;;;;;;;14.20;11.63;;;10.30;44.30;;;;;;5074487;28;20036;-59
2023/04/19 11:16:48;;;;;;;14.73;9.32;;;10.20;54.10;;;;;;5072986;28;20376;-57
2023/04/19 11:19:18;;;;;;;11.70;9.57;;;10.20;58.10;;;;;;5074376;28;20028;-58
2023/04/19 11:21:48;;;;;;;12.18;9.90;;;10.10;52.20;;;;;;5074039;28;20017;-59
2023/04/19 11:24:17;;;;;;;13.95;10.55;;;10.30;65.50;;;;;;5072190;28;20024;-58
2023/04/19 11:26:47;;;;;;;12.68;9.60;;;10.20;55.90;;;;;;5073010;28;20468;-59
2023/04/19 11:29:13;;;;;;;11.85;9.88;;;10.30;62.10;;;;;;5074225;28;20337;-58
2023/04/19 11:31:39;;;;;;;15.60;9.75;;;10.00;52.40;;;;;;5074151;28;20039;-58
2023/04/19 11:34:05;;;;;;;9.90;7.97;;;10.00;65.80;;;;;;5074231;28;20017;-58
2023/04/19 11:36:31;;;;;;;13.23;8.77;;;9.80;61.00;;;;;;5072710;28;20105;-58
2023/04/19 11:38:57;;;;;;;13.18;8.15;;;9.60;59.30;;;;;;5074150;28;20024;-58
2023/04/19 11:41:23;;;;;;;9.90;8.32;;;9.40;58.30;;;;;;5072289;28;20415;-58
2023/04/19 11:43:48;;;;;;;9.82;8.00;;;9.20;77.20;;;;;;5074186;28;20029;-58
2023/04/19 11:46:14;;;;;;;8.02;6.45;;;9.30;73.60;;;;;;5073780;28;20353;-58
2023/04/19 11:48:54;;;;;;;8.27;5.60;;;9.30;58.00;;;;;;5073944;28;20029;-58
2023/04/19 11:51:20;;;;;;;5.63;5.10;;;8.90;42.30;;;;;;5085646;28;20467;-58
2023/04/19 11:53:45;;;;;;;7.53;5.95;;;8.80;60.50;;;;;;5094333;28;20081;-58
2023/04/19 11:56:13;;;;;;;6.10;5.50;;;8.60;60.40;;;;;;5094041;28;20107;-58
2023/04/19 11:58:49;;;;;;;9.07;6.97;;;8.40;68.30;;;;;;5053374;28;20506;-58
2023/04/19 12:01:20;;;;;;;10.10;8.35;;;8.40;76.10;;;;;;5053539;28;20561;-58
2023/04/19 12:03:45;;;;;;;6.80;5.95;;;8.40;79.90;;;;;;5063575;28;20028;-58
2023/04/19 12:06:14;;;;;;;7.55;6.40;;;8.40;85.70;;;;;;5072095;28;20099;-57
2023/04/19 12:08:46;;;;;;;7.93;7.05;;;8.50;81.90;;;;;;5073512;28;20048;-58
2023/04/19 12:11:12;;;;;;;9.02;8.18;;;8.50;83.30;;;;;;5073579;28;20048;-57
2023/04/19 12:13:39;;;;;;;9.30;7.22;;;8.40;80.90;;;;;;5073132;28;20036;-58
2023/04/19 12:16:05;;;;;;;12.50;5.97;;;8.40;74.60;;;;;;5073519;28;20070;-58
2023/04/19 12:18:44;;;;;;;7.38;6.63;;;8.40;67.40;;;;;;5072422;28;20078;-58
2023/04/19 12:21:12;;;;;;;6.85;6.15;;;8.40;79.00;;;;;;5072899;28;20025;-58
2023/04/19 12:23:37;;;;;;;7.78;5.68;;;8.40;75.30;;;;;;5073087;28;20056;-58
2023/04/19 12:26:07;;;;;;;7.32;5.75;;;8.30;65.20;;;;;;5073130;28;20428;-58
2023/04/19 12:28:32;;;;;;;6.72;5.47;;;8.30;70.50;;;;;;5073210;28;20031;-58
2023/04/19 12:30:58;;;;;;;5.95;5.28;;;8.30;69.40;;;;;;5072878;28;20025;-58
2023/04/19 12:33:24;;;;;;;5.05;4.40;;;8.40;74.60;;;;;;5073011;28;20585;-58